• Join FlightAware (Why Join?)
  • Login
  • US Flag 
11:59AM EST


 

Airport Tracker/Info


-or-


 

Live Flight TrackerFlight Track Log ✈ DAL42 ✈ 29-Jul-2013 ✈ KATL - LFPG / CDG

Flight Track Log - Related Links

Times and Time Zones

All times are in EDT time to prevent confusion due to time zone crossing. See the DAL42 flight status page for this flight to view local times or setup timezone preferences in your user account.

Time Position Orientation Groundspeed Altitude Reporting Facility
EDT Latitude Longitude Course Direction KTS MPH feet Rate Location/Type
12:13AM 33.6500 -84.5000 53° Northeast 222 255 3,200  Level Atlanta TRACON
12:14AM 33.6833 -84.5833 296° West 269 310 5,700 2,520 Climbing Atlanta TRACON
12:15AM 33.7333 -84.5167 48° Northeast 286 329 8,600 2,220 Climbing Atlanta TRACON
12:17AM 33.9170 -83.7161 53° Northeast  Level FlightAware Approximate
12:17AM 33.7939 -84.2886 72° East 336 387 13,000  Level Atlanta Center
12:18AM 33.9965 -83.5887 53° Northeast  Level FlightAware Approximate
12:18AM 33.8233 -84.1614 74° East 377 434 15,300  Level Atlanta Center
12:19AM 33.8631 -84.0289 70° East 399 459 17,700 2,340 Climbing Atlanta Center
12:20AM 33.9297 -83.9111 56° Northeast 409 471 20,000 1,860 Climbing Atlanta Center
12:21AM 33.9903 -83.8033 56° Northeast 425 489 21,500 1,560 Climbing Atlanta Center
12:22AM 34.0631 -83.6803 54° Northeast 443 510 23,200 1,740 Climbing Atlanta Center
12:23AM 34.1356 -83.5519 56° Northeast 451 519 25,000 1,860 Climbing Atlanta Center
12:24AM 34.2122 -83.4208 55° Northeast 462 532 27,000 1,920 Climbing Atlanta Center
12:25AM 34.2886 -83.2919 54° Northeast 473 544 28,900 1,860 Climbing Atlanta Center
12:26AM 34.3631 -83.1631 55° Northeast 473 544 30,800 1,860 Climbing Atlanta Center
12:27AM 34.4350 -83.0314 56° Northeast 468 539 32,700 1,080 Climbing Atlanta Center
12:28AM 34.5172 -82.8942 54° Northeast 463 533 33,000 420 Climbing Atlanta Center
12:29AM 34.5892 -82.7697 55° Northeast 463 533 33,600 900 Climbing Atlanta Center
12:30AM 34.6544 -82.6425 58° Northeast 447 514 34,900 660 Climbing Atlanta Center
12:31AM 34.7242 -82.5350 52° Northeast 447 514 35,000  Climbing Atlanta Center
12:32AM 34.7936 -82.4100 56° Northeast 447 514 35,000  Level Atlanta Center
12:33AM 34.8650 -82.2869 55° Northeast 447 514 35,000  Level Atlanta Center
12:34AM 34.9361 -82.1639 55° Northeast 441 507 35,000  Level Atlanta Center
12:35AM 35.0031 -82.0406 56° Northeast 436 502 35,000  Level Atlanta Center
12:36AM 35.0719 -81.9147 56° Northeast 436 502 35,000  Level Atlanta Center
12:37AM 35.1486 -81.7781 56° Northeast 436 502 35,000  Level Atlanta Center
12:38AM 35.2172 -81.6542 56° Northeast 442 509 35,000  Level Atlanta Center
12:39AM 35.2836 -81.5300 57° Northeast 442 509 35,000  Level Atlanta Center
12:40AM 35.3519 -81.4033 56° Northeast 447 514 35,000  Level Atlanta Center
12:41AM 35.4267 -81.2914 51° Northeast 434 499 35,000  Level Atlanta Center
12:42AM 35.4978 -81.1997 46° Northeast 428 493 35,000  Level Atlanta Center
12:43AM 35.5986 -81.0608 48° Northeast 442 509 35,000  Level Atlanta Center
12:44AM 35.6858 -80.9578 44° Northeast 447 514 35,000  Level Atlanta Center
12:45AM 35.7686 -80.8522 46° Northeast 441 507 35,000  Level Atlanta Center
12:46AM 35.8533 -80.7414 47° Northeast 435 501 35,000  Level Atlanta Center
12:47AM 35.9336 -80.6278 49° Northeast 435 501 35,000  Level Atlanta Center
12:49AM 36.0806 -80.4444 45° Northeast 447 514 35,000  Level Washington Center
12:50AM 36.1644 -80.3311 47° Northeast 447 514 35,000  Level Washington Center
12:51AM 36.2481 -80.2203 47° Northeast 447 514 35,000  Level Washington Center
12:52AM 36.3294 -80.1092 48° Northeast 447 514 35,000  Level Washington Center
12:53AM 36.4106 -80.0053 46° Northeast 435 501 35,000  Level Washington Center
12:54AM 36.4958 -79.8967 46° Northeast 435 501 35,000  Level Washington Center
12:55AM 36.5772 -79.7847 48° Northeast 435 501 35,000  Level Washington Center
12:56AM 36.6603 -79.6725 47° Northeast 435 501 35,000  Level Washington Center
12:57AM 36.7347 -79.5703 48° Northeast 435 501 35,000  Level Washington Center
12:58AM 36.8156 -79.4603 47° Northeast 435 501 35,000  Level Washington Center
12:59AM 36.9006 -79.3475 47° Northeast 435 501 35,000  Level Washington Center
01:00AM 36.9919 -79.2194 48° Northeast 435 501 35,000  Level Washington Center
01:01AM 37.0767 -79.1064 47° Northeast 435 501 35,000  Level Washington Center
01:02AM 37.1594 -78.9903 48° Northeast 435 501 35,000  Level Washington Center
01:03AM 37.2331 -78.8917 47° Northeast 440 506 35,000  Level Washington Center
01:04AM 37.3156 -78.7778 48° Northeast 440 506 35,000  Level Washington Center
01:05AM 37.3997 -78.6636 47° Northeast 440 506 35,000  Level Washington Center
01:06AM 37.4906 -78.5392 47° Northeast 440 506 35,000  Level Washington Center
01:07AM 37.5725 -78.4242 48° Northeast 440 506 35,000  Level Washington Center
01:08AM 37.6567 -78.3094 47° Northeast 440 506 35,000  Level Washington Center
01:09AM 37.7297 -78.2044 49° Northeast 440 506 35,000  Level Washington Center
01:10AM 37.8158 -78.0786 49° Northeast 435 501 35,000  Level Washington Center
01:11AM 37.8975 -77.9628 48° Northeast 435 501 35,000  Level Washington Center
01:12AM 37.9811 -77.8442 48° Northeast 435 501 35,000  Level Washington Center
01:13AM 38.0519 -77.7383 50° Northeast 440 506 35,000  Level Washington Center
01:14AM 38.1353 -77.6192 48° Northeast 445 512 35,000  Level Washington Center
01:15AM 38.2186 -77.5025 48° Northeast 474 545 35,000  Level Washington Center
01:16AM 38.3058 -77.3750 49° Northeast 480 552 35,000  Level Washington Center
01:17AM 38.3869 -77.2525 50° Northeast 463 533 35,000  Level Washington Center
01:18AM 38.4806 -77.1194 48° Northeast 458 527 35,000  Level Washington Center
01:19AM 38.5633 -76.9989 49° Northeast 453 521 35,000  Level Washington Center
01:20AM 38.6439 -76.8756 50° Northeast 453 521 35,000  Level Washington Center
01:21AM 38.7264 -76.7572 48° Northeast 453 521 35,000  Level Washington Center
01:22AM 38.8089 -76.6358 49° Northeast 453 521 35,000  Level Washington Center
01:23AM 38.8889 -76.5169 49° Northeast 453 521 35,000  Level Washington Center
01:24AM 38.9692 -76.3925 50° Northeast 453 521 35,000  Level Washington Center
01:25AM 39.0511 -76.2731 49° Northeast 453 521 35,000  Level Washington Center
01:26AM 39.1267 -76.1617 49° Northeast 453 521 35,000  Level Washington Center
01:27AM 39.2083 -76.0417 49° Northeast 453 521 35,000  Level Washington Center
01:28AM 39.2900 -75.9161 50° Northeast 453 521 35,000  Level Washington Center
01:29AM 39.3739 -75.7903 49° Northeast 453 521 35,000  Level Washington Center
01:31AM 39.5419 -75.5333 50° Northeast 450 518 35,000  Level New York Center
01:32AM 39.6264 -75.4014 50° Northeast 455 524 35,000  Level New York Center
01:33AM 39.7106 -75.2747 49° Northeast 460 529 35,000  Level New York Center
01:34AM 39.8017 -75.1267 51° Northeast 465 535 35,000  Level New York Center
01:35AM 39.8881 -74.9914 50° Northeast 471 542 35,000  Level New York Center
01:36AM 39.9672 -74.8742 49° Northeast 481 554 35,000  Level New York Center
01:37AM 40.0514 -74.7300 53° Northeast 476 548 35,000  Level New York Center
01:38AM 40.1247 -74.5903 56° Northeast 476 548 35,000  Level New York Center
01:39AM 40.1956 -74.4556 55° Northeast 477 549 35,000  Level New York Center
01:40AM 40.2689 -74.3100 57° Northeast 482 555 35,000  Level New York Center
01:42AM 40.4050 -74.0369 57° Northeast 500 575 35,000  Level Boston Center
01:43AM 40.4886 -73.8808 55° Northeast 490 564 35,000  Level Boston Center
01:44AM 40.5592 -73.7322 58° Northeast 485 558 35,000  Level Boston Center
01:45AM 40.6253 -73.5911 58° Northeast 485 558 35,000  Level Boston Center
01:46AM 40.6994 -73.4475 56° Northeast 485 558 35,000  Level Boston Center
01:47AM 40.7736 -73.3006 56° Northeast 485 558 35,000  Level Boston Center
01:48AM 40.8558 -73.1564 53° Northeast 480 552 35,000  Level Boston Center
01:49AM 40.9381 -73.0117 53° Northeast 490 564 35,000  Level Boston Center
01:50AM 41.0219 -72.8636 53° Northeast 490 564 35,000  Level Boston Center
01:51AM 41.1058 -72.7211 52° Northeast 490 564 35,000  Level Boston Center
01:52AM 41.1894 -72.5725 53° Northeast 490 564 35,000  Level Boston Center
01:53AM 41.2792 -72.4125 53° Northeast 490 564 35,000  Level Boston Center
01:54AM 41.3583 -72.2742 53° Northeast 501 577 35,000  Level Boston Center
01:55AM 41.4414 -72.1300 52° Northeast 495 570 35,000  Level Boston Center
01:56AM 41.5242 -71.9825 53° Northeast 495 570 35,000  Level Boston Center
01:57AM 41.6069 -71.8347 53° Northeast 495 570 35,000  Level Boston Center
01:58AM 41.6914 -71.6867 53° Northeast 495 570 35,000  Level Boston Center
01:59AM 41.7881 -71.5242 51° Northeast 495 570 35,000  Level Boston Center
02:00AM 41.8703 -71.3722 54° Northeast 501 577 35,000  Level Boston Center
02:01AM 41.9542 -71.2231 53° Northeast 501 577 35,000  Level Boston Center
02:02AM 42.0378 -71.0675 54° Northeast 507 583 35,000  Level Boston Center
02:03AM 42.1253 -70.9089 53° Northeast 512 589 35,000  Level Boston Center
02:04AM 42.1983 -70.7642 56° Northeast 512 589 35,000  Level Boston Center
02:05AM 42.2833 -70.6047 54° Northeast 522 601 35,000  Level Boston Center
02:06AM 42.3744 -70.4361 54° Northeast 530 610 35,000  Level Boston Center
02:07AM 42.4631 -70.2731 54° Northeast 536 617 35,000  Level Boston Center
02:08AM 42.5514 -70.1064 54° Northeast 536 617 35,000  Level Boston Center
02:09AM 42.6397 -69.9367 55° Northeast 536 617 35,000  Level Boston Center
02:10AM 42.7256 -69.7719 55° Northeast 541 623 35,000  Level Boston Center
02:11AM 42.8172 -69.6039 53° Northeast 541 623 35,000  Level Boston Center
02:12AM 42.9047 -69.4353 55° Northeast 541 623 35,000  Level Boston Center
02:13AM 42.9761 -69.2956 55° Northeast 541 623 35,000  Level Boston Center
02:14AM 43.0906 -69.0736 55° Northeast 546 628 35,000  Level Boston Center
02:15AM 43.1772 -68.9036 55° Northeast 551 634 35,000  Level Boston Center
02:16AM 43.2653 -68.7272 56° Northeast 551 634 35,000  Level Boston Center
02:17AM 43.3514 -68.5592 55° Northeast 546 628 35,000  Level Boston Center
02:18AM 43.4372 -68.3850 56° Northeast 546 628 35,000  Level Boston Center
02:19AM 43.5208 -68.2189 55° Northeast 541 623 35,000  Level Boston Center
02:20AM 43.6081 -68.0464 55° Northeast 541 623 35,000  Level Boston Center
02:21AM 43.6931 -67.8708 56° Northeast 541 623 35,000  Level Boston Center
02:22AM 43.7778 -67.7003 55° Northeast 541 623 35,000  Level Boston Center
02:23AM 43.8603 -67.5267 57° Northeast 541 623 35,000  Level Boston Center
02:24AM 43.9425 -67.3556 56° Northeast 536 617 35,000  Level Boston Center
02:25AM 44.0264 -67.1808 56° Northeast 536 617 35,000  Level Boston Center
02:26AM 44.1081 -67.0114 56° Northeast 536 617 35,000  Level Boston Center
02:27AM 44.1936 -66.8356 56° Northeast 536 617 35,000  Level Boston Center
02:28AM 44.3000 -66.6000 58° Northeast 540 621 35,000  Level Moncton Center
02:29AM 44.3833 -66.4167 57° Northeast 540 621 35,000  Level Moncton Center
02:30AM 44.4500 -66.2167 65° Northeast 540 621 35,000  Level Moncton Center
02:31AM 44.5500 -66.0667 47° Northeast 540 621 35,000  Level Moncton Center
02:32AM 44.6333 -65.8833 57° Northeast 540 621 35,000  Level Moncton Center
02:33AM 44.7000 -65.6833 65° Northeast 530 610 35,000  Level Moncton Center
02:34AM 44.7833 -65.5333 52° Northeast 530 610 35,000  Level Moncton Center
02:35AM 44.8667 -65.3333 59° Northeast 530 610 35,000  Level Moncton Center
02:36AM 44.9333 -65.1833 58° Northeast 530 610 35,000  Level Moncton Center
02:37AM 45.0167 -64.9833 59° Northeast 520 598 35,000  Level Moncton Center
02:38AM 45.0833 -64.8167 60° Northeast 520 598 35,000  Level Moncton Center
02:39AM 45.1667 -64.6500 55° Northeast 520 598 35,000  Level Moncton Center
02:40AM 45.2500 -64.4667 57° Northeast 520 598 35,000  Level Moncton Center
02:41AM 45.3167 -64.3000 60° Northeast 520 598 35,000  Level Moncton Center
02:42AM 45.4000 -64.1167 57° Northeast 520 598 35,000  Level Moncton Center
02:43AM 45.4667 -63.9500 60° Northeast 520 598 35,000  Level Moncton Center
02:44AM 45.5500 -63.7833 54° Northeast 510 587 35,000  Level Moncton Center
02:45AM 45.6167 -63.6000 62° Northeast 510 587 35,000  Level Moncton Center
02:46AM 45.6833 -63.4333 60° Northeast 510 587 35,000  Level Moncton Center
02:47AM 45.7667 -63.2500 57° Northeast 510 587 35,000  Level Moncton Center
02:48AM 45.8333 -63.0833 60° Northeast 510 587 35,000  Level Moncton Center
02:49AM 45.9167 -62.8833 59° Northeast 510 587 35,000  Level Moncton Center
02:50AM 45.9833 -62.7333 57° Northeast 510 587 35,000  Level Moncton Center
02:51AM 46.0667 -62.5333 59° Northeast 510 587 35,000  Level Moncton Center
02:53AM 46.1833 -62.2500 59° Northeast 510 587 35,000  Level Gander Center
02:54AM 46.2500 -62.0833 60° Northeast 510 587 35,000  Level Gander Center
02:55AM 46.3333 -61.9167 54° Northeast 500 575 35,000  Level Gander Center
02:56AM 46.4000 -61.7167 64° Northeast 500 575 35,000  Level Gander Center
02:57AM 46.4667 -61.5500 60° Northeast 500 575 35,000  Level Gander Center
02:58AM 46.5333 -61.3500 64° Northeast 500 575 35,000  Level Gander Center
02:59AM 46.6000 -61.1833 60° Northeast 500 575 35,000  Level Gander Center
03:00AM 46.6667 -61.0167 60° Northeast 500 575 35,000  Level Gander Center
03:01AM 46.7333 -60.8500 60° Northeast 500 575 35,000  Level Gander Center
03:02AM 46.8000 -60.6667 62° Northeast 490 564 35,000  Level Gander Center
03:03AM 46.8833 -60.4833 56° Northeast 490 564 35,000  Level Gander Center
03:04AM 46.9167 -60.3333 72° East 490 564 35,000  Level Gander Center
03:05AM 47.0000 -60.1333 59° Northeast 490 564 35,000  Level Gander Center
03:06AM 47.0833 -59.9167 60° Northeast 490 564 35,000  Level Moncton Center
03:07AM 47.1333 -59.7500 66° East 490 564 35,000  Level Moncton Center
03:08AM 47.2167 -59.5333 60° Northeast 490 564 35,000  Level Moncton Center
03:09AM 47.2667 -59.3833 64° Northeast 500 575 35,000  Level Moncton Center
03:10AM 47.3333 -59.2333 57° Northeast 500 575 35,000  Level Gander Center
03:11AM 47.4000 -59.0000 67° East 510 587 35,000  Level Moncton Center
03:12AM 47.4667 -58.8500 57° Northeast 500 575 35,000  Level Moncton Center
03:13AM 47.5333 -58.6333 65° Northeast 500 575 35,000  Level Moncton Center
03:14AM 47.6000 -58.4667 59° Northeast 500 575 35,000  Level Moncton Center
03:15AM 47.6333 -58.3333 70° East 500 575 35,000  Level Gander Center
03:16AM 47.7000 -58.1500 62° Northeast 500 575 35,000  Level Gander Center
03:17AM 47.7667 -57.9833 59° Northeast 500 575 35,000  Level Gander Center
03:18AM 47.8500 -57.7667 60° Northeast 500 575 35,000  Level Gander Center
03:19AM 47.8833 -57.6167 72° East 490 564 35,000  Level Gander Center
03:20AM 47.9667 -57.4167 58° Northeast 490 564 35,000  Level Gander Center
03:21AM 48.0167 -57.2333 68° East 490 564 35,000  Level Gander Center
03:22AM 48.0833 -57.0500 61° Northeast 490 564 35,000  Level Gander Center
03:23AM 48.1500 -56.8667 61° Northeast 490 564 35,000  Level Gander Center
03:24AM 48.2000 -56.7000 66° East 490 564 35,000  Level Gander Center
03:25AM 48.2500 -56.5167 68° East 490 564 35,000  Level Gander Center
03:26AM 48.3000 -56.3000 71° East 490 564 35,000  Level Gander Center
03:27AM 48.3667 -56.1167 61° Northeast 490 564 35,000  Level Gander Center
03:28AM 48.4167 -55.9333 68° East 490 564 35,000  Level Gander Center
03:29AM 48.4833 -55.7500 61° Northeast 490 564 35,000  Level Gander Center
03:30AM 48.5333 -55.5667 68° East 490 564 35,000  Level Gander Center
03:31AM 48.6000 -55.3667 63° Northeast 490 564 35,000  Level Gander Center
03:32AM 48.6333 -55.2167 71° East 490 564 35,000  Level Gander Center
03:33AM 48.6833 -55.0000 71° East 490 564 35,000  Level Gander Center
03:34AM 48.7500 -54.8167 61° Northeast 490 564 35,000  Level Gander Center
03:35AM 48.8000 -54.6333 67° East 480 552 35,000  Level Gander Center
03:36AM 48.8500 -54.4500 67° East 490 564 35,000  Level Gander Center
03:37AM 48.9000 -54.2333 71° East 500 575 35,000  Level Gander Center
03:38AM 48.9500 -54.0500 67° East 490 564 35,000  Level Gander Center
03:39AM 49.0000 -53.8667 67° East 480 552 35,000  Level Gander Center
03:40AM 49.0833 -53.6167 63° Northeast 480 552 35,000  Level Gander Center
03:41AM 49.1167 -53.4667 71° East 480 552 35,000  Level Gander Center
03:42AM 49.1667 -53.2500 70° East 480 552 35,000  Level Gander Center
03:43AM 49.2167 -53.0500 69° East 480 552 35,000  Level Gander Center
03:44AM 49.2667 -52.8667 67° East 480 552 35,000  Level Gander Center
03:45AM 49.3333 -52.6833 61° Northeast 480 552 35,000  Level Gander Center
03:46AM 49.3667 -52.4833 76° East 480 552 35,000  Level Gander Center
03:48AM 49.4383 -52.2443 65° Northeast  Level FlightAware Approximate
03:50AM 49.5500 -51.7500 70° East 480 552 35,000  Level Gander Center
03:51AM 49.6167 -51.5167 66° East 480 552 35,000  Level Gander Center
03:52AM 49.6500 -51.3167 75° East 480 552 35,000  Level Gander Center
03:53AM 49.7000 -51.1500 65° Northeast 480 552 35,000  Level Gander Center
03:54AM 49.7500 -50.9333 70° East 480 552 35,000  Level Gander Center
03:55AM 49.7971 -50.8941 70° East  Level FlightAware Approximate
03:55AM 49.7833 -50.7500 74° East 480 552 35,000  Level Gander Center
03:56AM 49.8427 -50.6967 70° East  Level FlightAware Approximate
03:56AM 49.8333 -50.5500 69° East 480 552 35,000  Level Gander Center
03:57AM 49.8833 -50.3500 69° East 480 552 35,000  Level Gander Center
03:58AM 49.9333 -50.1667 67° East 480 552 35,000  Level Gander Center
03:59AM 49.9833 -49.9667 69° East 480 552 35,000  Level Gander Center
04:00AM 50.0167 -49.7833 74° East 490 564 35,000  Level Gander Center
04:01AM 50.0167 -49.5333 90° East 500 575 35,000  Level Gander Center
04:02AM 50.0500 -49.3500 74° East 490 564 35,000  Level Gander Center
04:03AM 50.0833 -49.1333 76° East 490 564 35,000  Level Gander Center
04:04AM 50.1167 -48.9333 75° East 490 564 35,000  Level Gander Center
04:05AM 50.1333 -48.7167 83° East 490 564 35,000  Level Gander Center
04:06AM 50.1667 -48.5000 76° East 480 552 35,000  Level Gander Center
04:07AM 50.2000 -48.3167 74° East 500 575 35,000  Level Gander Center
04:09AM 50.2333 -48.0667 78° East 440 506 35,000  Level Gander Center
04:10AM 50.2333 -47.8500 90° East 470 541 35,000  Level Gander Center
04:12AM 50.2876 -47.4951 78° East  Level FlightAware Approximate
04:19AM 50.4656 -46.0386 79° East  Level FlightAware Approximate
04:20AM 50.4896 -45.8296 80° East  Level FlightAware Approximate
04:21AM 50.5131 -45.6205 80° East  Level FlightAware Approximate
04:22AM 50.5363 -45.4111 80° East  Level FlightAware Approximate
04:23AM 50.5592 -45.2015 80° East  Level FlightAware Approximate
04:24AM 50.5816 -44.9918 80° East  Level FlightAware Approximate
04:25AM 50.6037 -44.7818 81° East  Level FlightAware Approximate
04:26AM 50.6254 -44.5717 81° East  Level FlightAware Approximate
04:27AM 50.6467 -44.3613 81° East  Level FlightAware Approximate
04:28AM 50.6676 -44.1507 81° East  Level FlightAware Approximate
04:29AM 50.6882 -43.9400 81° East  Level FlightAware Approximate
04:30AM 50.7083 -43.7291 81° East  Level FlightAware Approximate
04:31AM 50.7281 -43.5180 81° East  Level FlightAware Approximate
04:32AM 50.7475 -43.3068 82° East  Level FlightAware Approximate
04:33AM 50.7666 -43.0953 82° East  Level FlightAware Approximate
04:34AM 50.7852 -42.8837 82° East  Level FlightAware Approximate
04:35AM 50.8035 -42.6719 82° East  Level FlightAware Approximate
04:36AM 50.8214 -42.4600 82° East  Level FlightAware Approximate
04:37AM 50.8389 -42.2479 82° East  Level FlightAware Approximate
04:38AM 50.8560 -42.0356 83° East  Level FlightAware Approximate
04:39AM 50.8727 -41.8232 83° East  Level FlightAware Approximate
04:40AM 50.8890 -41.6106 83° East  Level FlightAware Approximate
04:41AM 50.9050 -41.3979 83° East  Level FlightAware Approximate
04:42AM 50.9206 -41.1850 83° East  Level FlightAware Approximate
04:43AM 50.9358 -40.9720 83° East  Level FlightAware Approximate
04:44AM 50.9506 -40.7589 84° East  Level FlightAware Approximate
04:45AM 50.9650 -40.5456 84° East  Level FlightAware Approximate
04:46AM 50.9790 -40.3322 84° East  Level FlightAware Approximate
04:47AM 50.9926 -40.1187 84° East  Level FlightAware Approximate
04:48AM 51.0133 -39.9070 77° East  Level FlightAware Approximate
04:49AM 51.0431 -39.6974 77° East  Level FlightAware Approximate
04:50AM 51.0718 -39.4925 77° East  Level FlightAware Approximate
04:51AM 51.1001 -39.2874 78° East  Level FlightAware Approximate
04:52AM 51.1280 -39.0821 78° East  Level FlightAware Approximate
04:53AM 51.1556 -38.8765 78° East  Level FlightAware Approximate
04:54AM 51.1829 -38.6706 78° East  Level FlightAware Approximate
04:55AM 51.2097 -38.4645 78° East  Level FlightAware Approximate
04:56AM 51.2363 -38.2582 78° East  Level FlightAware Approximate
04:57AM 51.2623 -38.0516 79° East  Level FlightAware Approximate
04:58AM 51.2879 -37.8447 79° East  Level FlightAware Approximate
04:59AM 51.3131 -37.6376 79° East  Level FlightAware Approximate
05:00AM 51.3380 -37.4303 79° East  Level FlightAware Approximate
05:01AM 51.3625 -37.2228 79° East  Level FlightAware Approximate
05:02AM 51.3866 -37.0150 79° East  Level FlightAware Approximate
05:03AM 51.4104 -36.8070 80° East  Level FlightAware Approximate
05:04AM 51.4338 -36.5989 80° East  Level FlightAware Approximate
05:05AM 51.4568 -36.3905 80° East  Level FlightAware Approximate
05:06AM 51.4799 -36.1820 80° East  Level FlightAware Approximate
05:07AM 51.5030 -35.9734 80° East  Level FlightAware Approximate
05:08AM 51.5257 -35.7646 80° East  Level FlightAware Approximate
05:09AM 51.5480 -35.5555 80° East  Level FlightAware Approximate
05:10AM 51.5700 -35.3463 80° East  Level FlightAware Approximate
05:11AM 51.5916 -35.1369 80° East  Level FlightAware Approximate
05:12AM 51.6128 -34.9273 81° East  Level FlightAware Approximate
05:13AM 51.6337 -34.7175 81° East  Level FlightAware Approximate
05:14AM 51.6541 -34.5075 81° East  Level FlightAware Approximate
05:15AM 51.6742 -34.2973 81° East  Level FlightAware Approximate
05:16AM 51.6940 -34.0869 81° East  Level FlightAware Approximate
05:17AM 51.7133 -33.8763 81° East  Level FlightAware Approximate
05:18AM 51.7323 -33.6656 82° East  Level FlightAware Approximate
05:19AM 51.7509 -33.4547 82° East  Level FlightAware Approximate
05:20AM 51.7691 -33.2436 82° East  Level FlightAware Approximate
05:21AM 51.7869 -33.0324 82° East  Level FlightAware Approximate
05:22AM 51.8044 -32.8209 82° East  Level FlightAware Approximate
05:23AM 51.8214 -32.6094 82° East  Level FlightAware Approximate
05:24AM 51.8382 -32.3976 83° East  Level FlightAware Approximate
05:25AM 51.8545 -32.1857 83° East  Level FlightAware Approximate
05:26AM 51.8704 -31.9737 83° East  Level FlightAware Approximate
05:27AM 51.8860 -31.7615 83° East  Level FlightAware Approximate
05:28AM 51.9011 -31.5492 83° East  Level FlightAware Approximate
05:29AM 51.9159 -31.3367 83° East  Level FlightAware Approximate
05:30AM 51.9303 -31.1241 84° East  Level FlightAware Approximate
05:31AM 51.9444 -30.9113 84° East  Level FlightAware Approximate
05:32AM 51.9580 -30.6984 84° East  Level FlightAware Approximate
05:33AM 51.9713 -30.4854 84° East  Level FlightAware Approximate
05:34AM 51.9841 -30.2723 84° East  Level FlightAware Approximate
05:35AM 51.9966 -30.0590 84° East  Level FlightAware Approximate
05:36AM 52.0065 -29.8454 86° East  Level FlightAware Approximate
05:37AM 52.0151 -29.6315 86° East  Level FlightAware Approximate
05:38AM 52.0233 -29.4176 86° East  Level FlightAware Approximate
05:39AM 52.0311 -29.2031 87° East  Level FlightAware Approximate
05:40AM 52.0386 -28.9886 87° East  Level FlightAware Approximate
05:41AM 52.0456 -28.7740 87° East  Level FlightAware Approximate
05:42AM 52.0523 -28.5593 87° East  Level FlightAware Approximate
05:43AM 52.0586 -28.3445 87° East  Level FlightAware Approximate
05:44AM 52.0645 -28.1298 87° East  Level FlightAware Approximate
05:45AM 52.0700 -27.9149 88° East  Level FlightAware Approximate
05:46AM 52.0751 -27.7000 88° East  Level FlightAware Approximate
05:47AM 52.0798 -27.4851 88° East  Level FlightAware Approximate
05:48AM 52.0841 -27.2701 88° East  Level FlightAware Approximate
05:49AM 52.0881 -27.0550 88° East  Level FlightAware Approximate
05:50AM 52.0916 -26.8400 88° East  Level FlightAware Approximate
05:51AM 52.0948 -26.6249 89° East  Level FlightAware Approximate
05:52AM 52.0975 -26.4097 89° East  Level FlightAware Approximate
05:53AM 52.0999 -26.1946 89° East  Level FlightAware Approximate
05:54AM 52.1019 -25.9794 89° East  Level FlightAware Approximate
05:55AM 52.1035 -25.7642 89° East  Level FlightAware Approximate
05:56AM 52.1047 -25.5490 89° East  Level FlightAware Approximate
05:57AM 52.1055 -25.3338 90° East  Level FlightAware Approximate
05:58AM 52.1059 -25.1186 90° East  Level FlightAware Approximate
05:59AM 52.1059 -24.9034 90° East  Level FlightAware Approximate
06:00AM 52.1055 -24.6882 90° East  Level FlightAware Approximate
06:01AM 52.1048 -24.4730 90° East  Level FlightAware Approximate
06:02AM 52.1036 -24.2578 90° East  Level FlightAware Approximate
06:03AM 52.1021 -24.0426 91° East  Level FlightAware Approximate
06:04AM 52.1001 -23.8274 91° East  Level FlightAware Approximate
06:05AM 52.0978 -23.6122 91° East  Level FlightAware Approximate
06:06AM 52.0951 -23.3971 91° East  Level FlightAware Approximate
06:07AM 52.0919 -23.1820 91° East  Level FlightAware Approximate
06:08AM 52.0884 -22.9669 91° East  Level FlightAware Approximate
06:09AM 52.0845 -22.7519 92° East  Level FlightAware Approximate
06:10AM 52.0802 -22.5369 92° East  Level FlightAware Approximate
06:11AM 52.0756 -22.3220 92° East  Level FlightAware Approximate
06:12AM 52.0705 -22.1071 92° East  Level FlightAware Approximate
06:13AM 52.0650 -21.8922 92° East  Level FlightAware Approximate
06:14AM 52.0592 -21.6774 92° East  Level FlightAware Approximate
06:15AM 52.0530 -21.4627 93° East  Level FlightAware Approximate
06:16AM 52.0463 -21.2480 93° East  Level FlightAware Approximate
06:17AM 52.0393 -21.0334 93° East  Level FlightAware Approximate
06:18AM 52.0319 -20.8189 93° East  Level FlightAware Approximate
06:19AM 52.0241 -20.6044 93° East  Level FlightAware Approximate
06:20AM 52.0159 -20.3900 93° East  Level FlightAware Approximate
06:21AM 52.0073 -20.1757 94° East  Level FlightAware Approximate
06:22AM 51.9974 -19.9616 96° East  Level FlightAware Approximate
06:23AM 51.9826 -19.7483 96° East  Level FlightAware Approximate
06:24AM 51.9674 -19.5351 97° East  Level FlightAware Approximate
06:25AM 51.9519 -19.3221 97° East  Level FlightAware Approximate
06:26AM 51.9359 -19.1092 97° East  Level FlightAware Approximate
06:27AM 51.9196 -18.8965 97° East  Level FlightAware Approximate
06:28AM 51.9029 -18.6839 97° East  Level FlightAware Approximate
06:29AM 51.8858 -18.4715 97° East  Level FlightAware Approximate
06:30AM 51.8684 -18.2592 98° East  Level FlightAware Approximate
06:31AM 51.8505 -18.0471 98° East  Level FlightAware Approximate
06:32AM 51.8323 -17.8352 98° East  Level FlightAware Approximate
06:33AM 51.8137 -17.6235 98° East  Level FlightAware Approximate
06:34AM 51.7947 -17.4119 98° East  Level FlightAware Approximate
06:35AM 51.7753 -17.2006 98° East  Level FlightAware Approximate
06:36AM 51.7556 -16.9894 99° East  Level FlightAware Approximate
06:37AM 51.7354 -16.7784 99° East  Level FlightAware Approximate
06:38AM 51.7149 -16.5675 99° East  Level FlightAware Approximate
06:39AM 51.6940 -16.3569 99° East  Level FlightAware Approximate
06:40AM 51.6728 -16.1465 99° East  Level FlightAware Approximate
06:41AM 51.6512 -15.9362 99° East  Level FlightAware Approximate
06:42AM 51.6292 -15.7262 100° East  Level FlightAware Approximate
06:43AM 51.6068 -15.5168 100° East  Level FlightAware Approximate
06:44AM 51.5841 -15.3076 100° East  Level FlightAware Approximate
06:45AM 51.5610 -15.0987 100° East  Level FlightAware Approximate
06:46AM 51.5397 -14.8894 98° East  Level FlightAware Approximate
06:47AM 51.5200 -14.6797 99° East  Level FlightAware Approximate
06:48AM 51.4999 -14.4702 99° East  Level FlightAware Approximate
06:49AM 51.4789 -14.2611 100° East  Level FlightAware Approximate
06:50AM 51.4549 -14.0529 100° East  Level FlightAware Approximate
06:51AM 51.4305 -13.8449 101° East  Level FlightAware Approximate
06:52AM 51.4058 -13.6371 101° East  Level FlightAware Approximate
06:53AM 51.3807 -13.4295 101° East  Level FlightAware Approximate
06:54AM 51.3552 -13.2222 101° East  Level FlightAware Approximate
06:55AM 51.3294 -13.0151 101° East  Level FlightAware Approximate
06:56AM 51.3032 -12.8083 101° East  Level FlightAware Approximate
06:57AM 51.2766 -12.6017 102° East  Level FlightAware Approximate
06:58AM 51.2497 -12.3953 102° East  Level FlightAware Approximate
06:59AM 51.2224 -12.1891 102° East  Level FlightAware Approximate
07:00AM 51.1948 -11.9833 102° East  Level FlightAware Approximate
07:01AM 51.1667 -11.7776 102° East  Level FlightAware Approximate
07:02AM 51.1384 -11.5722 102° East  Level FlightAware Approximate
07:03AM 51.1096 -11.3671 102° East  Level FlightAware Approximate
07:04AM 51.0806 -11.1622 103° East  Level FlightAware Approximate
07:05AM 51.0511 -10.9576 103° East  Level FlightAware Approximate
07:06AM 51.0204 -10.7536 103° East  Level FlightAware Approximate
07:07AM 50.9894 -10.5499 104° East  Level FlightAware Approximate
07:07AM 50.7970 -8.9857 104° East 1 1 37,000  Level FlightAware UK
07:08AM 50.9579 -10.3464 104° East  Level FlightAware Approximate
07:08AM 50.7729 -8.8758 109° East 1 1 37,000  Level FlightAware UK
07:08AM 50.7483 -8.7664 110° East 1 1 37,000  Level FlightAware UK
07:09AM 50.7235 -8.6569 110° East 1 1 37,000  Level FlightAware UK
07:09AM 50.6989 -8.5473 109° East 1 1 37,000  Level FlightAware UK
07:10AM 50.6742 -8.4381 110° East 1 1 37,000  Level FlightAware UK
07:10AM 50.6493 -8.3290 110° East 1 1 37,000  Level FlightAware UK
07:11AM 50.6243 -8.2202 110° East 1 1 37,000  Level FlightAware UK
07:11AM 50.5993 -8.1108 110° East 1 1 37,000  Level FlightAware UK
07:12AM 50.5741 -8.0026 110° East 1 1 37,000  Level FlightAware UK
07:12AM 50.5488 -7.8949 110° East 1 1 37,000  Level FlightAware UK
07:13AM 50.5236 -7.7874 110° East 1 1 37,000  Level FlightAware UK
07:13AM 50.4934 -7.6591 110° East 1 1 37,000  Level FlightAware UK
07:14AM 50.4630 -7.5312 110° East 1 1 37,000  Level FlightAware UK
07:14AM 50.4373 -7.4251 111° Southeast 1 1 37,000  Level FlightAware UK
07:15AM 50.4118 -7.3192 111° Southeast 1 1 37,000  Level FlightAware UK
07:15AM 50.3864 -7.2134 111° Southeast 1 1 37,000  Level FlightAware UK
07:16AM 50.3610 -7.1078 111° Southeast 1 1 37,000  Level FlightAware UK
07:16AM 50.3353 -7.0026 111° Southeast 1 1 37,000  Level FlightAware UK
07:17AM 50.3092 -6.8970 111° Southeast 1 1 37,000  Level FlightAware UK
07:17AM 50.2833 -6.7922 111° Southeast 1 1 37,000  Level FlightAware UK
07:18AM 50.2575 -6.6875 111° Southeast 1 1 37,000  Level FlightAware UK
07:19AM 50.2267 -6.5620 111° Southeast 1 1 37,000  Level FlightAware UK
07:19AM 50.2006 -6.4579 111° Southeast 1 1 37,000  Level FlightAware UK
07:20AM 50.1745 -6.3541 111° Southeast 1 1 37,000  Level FlightAware UK
07:20AM 50.1485 -6.2503 111° Southeast 1 1 37,000  Level FlightAware UK
07:21AM 50.1226 -6.1466 111° Southeast 1 1 37,000  Level FlightAware UK
07:21AM 50.0964 -6.0435 112° Southeast 1 1 37,000  Level FlightAware UK
07:22AM 50.0699 -5.9409 112° Southeast 1 1 37,000  Level FlightAware UK
07:22AM 50.0431 -5.8377 112° Southeast 1 1 37,000  Level FlightAware UK
07:23AM 50.0167 -5.7352 112° Southeast 1 1 37,000  Level FlightAware UK
07:23AM 49.9902 -5.6328 112° Southeast 1 1 37,000  Level FlightAware UK
07:24AM 49.9632 -5.5311 112° Southeast 1 1 37,000  Level FlightAware UK
07:24AM 49.9358 -5.4298 113° Southeast 1 1 37,000  Level FlightAware UK
07:25AM 49.9082 -5.3290 113° Southeast 1 1 37,000  Level FlightAware UK
07:25AM 49.8806 -5.2275 113° Southeast 1 1 37,000  Level FlightAware UK
07:26AM 49.8538 -5.1263 112° Southeast 1 1 37,000  Level FlightAware UK
07:26AM 49.8341 -4.9967 103° East 454 522 37,000  Level FlightAware UK
07:27AM 49.8166 -4.8895 104° East 456 525 37,000  Level FlightAware UK
07:27AM 49.7985 -4.7823 105° East 458 527 37,000  Level FlightAware UK
07:28AM 49.7756 -4.6543 105° East 458 527 37,000  Level FlightAware UK
07:28AM 49.7516 -4.5268 106° East 458 527 37,000  Level FlightAware UK
07:29AM 49.7314 -4.4207 106° East 458 527 37,000  Level FlightAware UK
07:30AM 49.6950 -4.2295 106° East 460 529 37,000  Level FlightAware UK
07:30AM 49.6749 -4.1235 106° East 458 527 37,000  Level FlightAware UK
07:31AM 49.6553 -4.0167 106° East 460 529 37,000  Level FlightAware UK
07:31AM 49.6453 -3.9064 98° East 460 529 37,000  Level FlightAware UK
07:32AM 49.6346 -3.7300 95° East 460 529 37,000  Level FlightAware UK
07:33AM 49.6195 -3.4871 95° East 458 527 37,000  Level FlightAware UK
07:34AM 49.6124 -3.3773 96° East 458 527 37,000  Level FlightAware UK
07:34AM 49.6037 -3.2451 96° East 456 525 37,000  Level FlightAware UK
07:35AM 49.5935 -3.0915 96° East 458 527 37,000  Level FlightAware UK
07:35AM 49.5859 -2.9813 96° East 456 525 37,000  Level FlightAware UK
07:36AM 49.5782 -2.8718 96° East 456 525 37,000  Level FlightAware UK
07:36AM 49.5704 -2.7617 96° East 458 527 37,000  Level FlightAware UK
07:37AM 49.5611 -2.6303 96° East 458 527 37,000  Level FlightAware UK
07:38AM 49.5531 -2.5203 96° East 458 527 37,000  Level FlightAware UK
07:38AM 49.5450 -2.4110 96° East 458 527 37,000  Level FlightAware UK
07:39AM 49.5319 -2.2348 96° East 456 525 37,000  Level FlightAware UK
07:40AM 49.5188 -2.0586 96° East 456 525 37,000  Level FlightAware UK
07:40AM 49.5100 -1.9473 97° East 456 525 37,000  Level FlightAware UK
07:41AM 49.4995 -1.8136 97° East 458 527 37,000  Level FlightAware UK
07:41AM 49.4871 -1.6588 97° East 458 527 37,000  Level FlightAware UK
07:42AM 49.4782 -1.5481 97° East 458 527 37,000  Level FlightAware UK
07:43AM 49.4671 -1.4150 97° East 460 529 37,000 -420 Level FlightAware UK
07:43AM 49.4541 -1.2601 97° East 460 529 36,500 -1,140 Descending FlightAware UK
07:44AM 49.4449 -1.1489 97° East 462 532 35,700 -1,440 Descending FlightAware UK
07:44AM 49.4316 -0.9936 97° East 464 534 34,800 -1,440 Descending FlightAware UK
07:45AM 49.4216 -0.8814 98° East 466 536 34,000 -1,500 Descending FlightAware UK
07:45AM 49.4117 -0.7692 98° East 470 541 33,300 -2,100 Descending FlightAware UK
07:46AM 49.3957 -0.5871 98° East 472 543 31,300 -2,580 Descending FlightAware UK
07:47AM 49.3835 -0.4531 98° East 466 536 29,700 -2,400 Descending FlightAware UK
07:48AM 49.3669 -0.2776 98° East 452 520 28,000 -1,440 Descending FlightAware UK
07:48AM 49.3570 -0.1698 98° East 462 532 27,900  Descending FlightAware UK
07:49AM 49.3555 -0.0548 91° East 478 550 28,000 -480 Climbing FlightAware UK
07:49AM 49.3531 0.0833 91° East 482 555 27,400 -960 Descending FlightAware UK
07:50AM 49.3507 0.1985 92° East 480 552 27,000 -720 Descending FlightAware UK
07:50AM 49.3477 0.3135 92° East 474 545 26,700 -540 Descending FlightAware UK
07:51AM 49.3440 0.4254 93° East 470 541 26,500 -1,320 Descending FlightAware UK
07:51AM 49.3403 0.5364 93° East 466 536 25,400 -2,100 Descending FlightAware UK
07:52AM 49.3357 0.6672 93° East 444 511 24,200 -2,280 Descending FlightAware UK
07:52AM 49.3321 0.7688 93° East 420 483 22,900 -2,160 Descending FlightAware UK
07:53AM 49.3243 0.9544 94° East 364 419 21,000 -2,160 Descending FlightAware UK
07:54AM 49.3210 1.0424 93° East 356 410 19,700 -2,340 Descending FlightAware UK
07:55AM 49.3165 1.1625 93° East 348 400 18,200 -2,040 Descending FlightAware UK
07:55AM 49.3112 1.2968 93° East 340 391 16,700 -1,980 Descending FlightAware UK
07:56AM 49.3062 1.4261 93° East 332 382 15,100 -2,040 Descending FlightAware UK
07:57AM 49.3029 1.5046 94° East 326 375 14,100 -2,160 Descending FlightAware UK
07:58AM 49.2971 1.6320 94° East 340 391 12,300 -1,740 Descending FlightAware UK
07:59AM 49.2898 1.8059 94° East 330 380 10,900 -780 Descending FlightAware UK
07:59AM 49.2849 1.9115 94° East 304 350 11,000 60 Climbing FlightAware UK
08:00AM 49.2806 1.9961 94° East 294 338 11,000  Level FlightAware UK
08:00AM 49.2776 2.0684 94° East 298 343 11,000  Level FlightAware UK
08:01AM 49.2744 2.1406 94° East 298 343 11,000  Level FlightAware UK
08:02AM 49.2701 2.2410 94° East 296 341 11,000  Level FlightAware UK
08:04AM 49.0752 2.4755 142° Southeast  Level Estimated
08:11AM 49.0128 2.5500 142° Southeast  Level Estimated
08:12AM 49.0128 2.5500 180° South  Level Estimated
08:13AM 49.0128 2.5500 180° South  Level Estimated
08:14AM 49.0128 2.5500 180° South  Level Estimated
08:15AM 49.0128 2.5500 180° South  Level Estimated
08:16AM 49.0128 2.5500 180° South  Level Estimated
08:17AM 49.0128 2.5500 180° South  Level Estimated
08:18AM 49.0128 2.5500 180° South  Level Estimated
08:19AM 49.0128 2.5500 180° South  Level Estimated